createdAt,value
2019-01-19T00:02:37.431Z,11.50
2019-01-19T00:07:54.915Z,13.27
2019-01-19T00:14:04.419Z,7.10
2019-01-19T00:20:10.488Z,11.37
2019-01-19T00:26:18.478Z,9.10
2019-01-19T00:31:29.479Z,8.90
2019-01-19T00:37:01.782Z,14.10
2019-01-19T00:42:39.293Z,9.23
2019-01-19T00:48:24.380Z,10.57
2019-01-19T00:53:42.369Z,11.90
2019-01-19T00:58:56.604Z,10.33
2019-01-19T01:04:48.224Z,8.47
2019-01-19T01:10:09.540Z,15.93
2019-01-19T01:15:52.722Z,8.00
2019-01-19T01:22:01.606Z,9.83
2019-01-19T01:27:19.492Z,11.60
2019-01-19T01:33:37.494Z,7.63
2019-01-19T01:39:24.159Z,12.57
2019-01-19T01:45:07.561Z,9.00
2019-01-19T01:50:23.116Z,14.13
2019-01-19T01:55:52.625Z,8.20
2019-01-19T02:01:25.560Z,10.10
2019-01-19T02:07:08.458Z,14.50
2019-01-19T02:12:37.545Z,27.97
2019-01-19T02:17:59.311Z,19.43
2019-01-19T02:23:28.944Z,12.87
2019-01-19T02:29:04.176Z,14.00
2019-01-19T02:35:01.455Z,11.37
2019-01-19T02:41:11.303Z,10.73
2019-01-19T02:47:22.050Z,12.70
2019-01-19T02:53:10.913Z,9.90
2019-01-19T02:58:45.395Z,11.83
2019-01-19T03:04:45.663Z,8.93
2019-01-19T03:10:29.376Z,9.57
2019-01-19T03:16:35.457Z,13.77
2019-01-19T03:22:25.998Z,9.03
2019-01-19T03:28:11.923Z,10.30
2019-01-19T03:34:08.609Z,13.50
2019-01-19T03:39:55.579Z,11.33
2019-01-19T03:45:54.543Z,8.67
2019-01-19T03:51:28.544Z,7.00
2019-01-19T03:57:07.383Z,9.83
2019-01-19T04:02:25.061Z,10.23
2019-01-19T04:08:12.556Z,13.57
2019-01-19T04:13:54.609Z,13.43
2019-01-19T04:19:31.518Z,10.17
2019-01-19T04:25:15.102Z,13.03
2019-01-19T04:30:17.357Z,12.63
2019-01-19T04:35:20.384Z,12.63
2019-01-19T04:40:23.262Z,13.43
2019-01-19T04:45:25.750Z,19.27
2019-01-19T04:50:28.198Z,13.60
2019-01-19T04:55:30.459Z,12.27
2019-01-19T05:00:33.795Z,12.10
2019-01-19T05:05:36.868Z,13.23
2019-01-19T05:10:39.641Z,14.03
2019-01-19T05:15:41.953Z,15.43
2019-01-19T05:20:44.917Z,12.90
2019-01-19T05:25:47.283Z,15.20
2019-01-19T05:30:50.045Z,14.33
2019-01-19T05:35:52.807Z,13.90
2019-01-19T05:40:55.057Z,14.53
2019-01-19T05:45:57.330Z,11.90
2019-01-19T05:50:59.503Z,16.40
2019-01-19T05:56:02.020Z,16.03
2019-01-19T06:01:09.327Z,16.57
2019-01-19T06:06:12.565Z,14.83
2019-01-19T06:11:15.542Z,16.30
2019-01-19T06:16:17.807Z,16.30
2019-01-19T06:21:23.524Z,17.93
2019-01-19T06:26:25.843Z,16.43
2019-01-19T06:31:28.613Z,16.23
2019-01-19T06:36:30.838Z,17.40
2019-01-19T06:41:33.165Z,12.10
2019-01-19T06:46:35.999Z,18.17
2019-01-19T06:51:39.998Z,15.20
2019-01-19T06:56:42.823Z,21.90
2019-01-19T07:01:45.699Z,17.00
2019-01-19T07:06:48.008Z,16.53
2019-01-19T07:11:51.395Z,16.50
2019-01-19T07:16:54.162Z,20.20
2019-01-19T07:21:57.515Z,16.87
2019-01-19T07:27:00.462Z,16.30
2019-01-19T07:32:02.875Z,16.90
2019-01-19T07:37:09.700Z,20.50
2019-01-19T07:42:09.907Z,17.77
2019-01-19T07:47:13.269Z,23.60
2019-01-19T07:52:15.656Z,20.13
2019-01-19T07:57:17.893Z,20.43
2019-01-19T08:02:20.210Z,21.17
2019-01-19T08:07:22.860Z,18.00
2019-01-19T08:12:25.249Z,26.83
2019-01-19T08:17:27.488Z,20.43
2019-01-19T08:22:29.983Z,19.93
2019-01-19T08:27:32.803Z,24.13
2019-01-19T08:32:35.474Z,22.63
2019-01-19T08:37:38.228Z,25.73
2019-01-19T08:42:40.745Z,21.67
2019-01-19T08:47:43.414Z,24.83
2019-01-19T08:52:45.802Z,21.90
2019-01-19T08:57:48.558Z,24.13
2019-01-19T09:02:51.406Z,25.50
2019-01-19T09:07:54.056Z,30.63
2019-01-19T09:12:56.919Z,29.63
2019-01-19T09:17:59.689Z,25.73
2019-01-19T09:23:07.732Z,24.97
2019-01-19T09:28:10.350Z,28.10
2019-01-19T09:33:13.381Z,28.83
2019-01-19T09:38:16.222Z,25.67
2019-01-19T09:43:18.555Z,23.80
2019-01-19T09:48:21.317Z,25.60
2019-01-19T09:53:23.861Z,30.93
2019-01-19T09:58:26.685Z,25.80
2019-01-19T10:03:29.408Z,28.97
2019-01-19T10:13:54.034Z,29.30
2019-01-19T10:19:27.378Z,27.77
2019-01-19T10:26:28.342Z,29.33
2019-01-19T10:31:46.256Z,26.37
2019-01-19T10:36:56.321Z,30.47
2019-01-19T10:42:05.927Z,26.73
2019-01-19T10:47:50.236Z,28.97
2019-01-19T10:53:34.190Z,25.40
2019-01-19T10:58:41.826Z,25.93
2019-01-19T11:04:27.905Z,28.53
2019-01-19T11:09:44.537Z,31.97
2019-01-19T11:15:02.865Z,28.20
2019-01-19T11:20:10.626Z,25.60
2019-01-19T11:25:16.316Z,27.43
2019-01-19T11:30:24.955Z,27.97
2019-01-19T11:35:28.193Z,28.83
2019-01-19T11:40:35.963Z,28.10
2019-01-19T11:45:38.706Z,28.20
2019-01-19T11:50:41.417Z,29.07
2019-01-19T11:55:43.704Z,29.57
2019-01-19T12:00:46.716Z,31.10
2019-01-19T12:05:52.385Z,31.50
2019-01-19T12:10:54.914Z,28.93
2019-01-19T12:15:57.984Z,24.83
2019-01-19T12:21:00.487Z,30.67
2019-01-19T12:26:06.468Z,31.27
2019-01-19T12:31:08.695Z,24.47
2019-01-19T12:36:11.394Z,25.53
2019-01-19T12:41:13.917Z,32.67
2019-01-19T12:46:16.231Z,22.73
2019-01-19T12:51:18.623Z,27.43
2019-01-19T12:56:23.489Z,29.47
2019-01-19T13:01:25.968Z,42.37
2019-01-19T13:07:01.786Z,24.47
2019-01-19T13:12:31.950Z,31.77
2019-01-19T13:18:29.006Z,24.17
2019-01-19T13:24:08.830Z,24.77
2019-01-19T13:29:45.702Z,28.40
2019-01-19T13:35:47.508Z,23.23
2019-01-19T13:41:46.503Z,24.77
2019-01-19T13:47:31.456Z,21.33
2019-01-19T13:53:22.588Z,23.10
2019-01-19T13:58:47.493Z,21.50
2019-01-19T14:04:26.386Z,22.20
2019-01-19T14:10:23.014Z,26.80
2019-01-19T14:16:06.417Z,22.50
2019-01-19T14:21:42.160Z,21.13
2019-01-19T14:27:54.629Z,23.97
2019-01-19T14:34:10.279Z,23.00
2019-01-19T14:40:05.221Z,21.67
2019-01-19T14:45:59.938Z,25.80
2019-01-19T14:51:30.011Z,20.77
2019-01-19T14:57:01.964Z,27.00
2019-01-19T15:03:17.396Z,29.47
2019-01-19T15:08:53.596Z,33.13
2019-01-19T15:14:47.272Z,33.90
2019-01-19T15:20:23.561Z,34.77
2019-01-19T15:25:56.259Z,34.50
2019-01-19T15:31:20.486Z,36.37
2019-01-19T15:37:50.943Z,34.67
2019-01-19T15:43:45.689Z,34.63
2019-01-19T15:49:48.848Z,34.60
2019-01-19T15:55:33.863Z,32.23
2019-01-19T16:01:32.665Z,36.57
2019-01-19T16:07:23.597Z,34.83
2019-01-19T16:13:00.526Z,34.50
2019-01-19T16:18:24.351Z,34.53
2019-01-19T16:24:14.152Z,31.97
2019-01-19T16:29:36.492Z,37.13
2019-01-19T16:35:08.868Z,34.30
2019-01-19T16:41:14.238Z,40.43
2019-01-19T16:47:00.711Z,34.73
2019-01-19T16:52:49.295Z,38.77
2019-01-19T16:58:44.423Z,45.07
2019-01-19T17:04:46.520Z,31.73
2019-01-19T17:10:51.991Z,37.10
2019-01-19T17:16:28.212Z,44.83
2019-01-19T17:22:46.265Z,36.00
2019-01-19T17:28:17.266Z,39.40
2019-01-19T17:34:21.374Z,41.60
2019-01-19T17:40:31.159Z,40.70
2019-01-19T17:46:41.670Z,41.07
2019-01-19T17:52:50.201Z,42.70
2019-01-19T17:59:14.628Z,40.03
2019-01-19T18:05:27.327Z,39.87
2019-01-19T18:11:37.473Z,39.03
2019-01-19T18:17:34.035Z,42.40
2019-01-19T18:23:55.914Z,40.67
2019-01-19T18:29:53.637Z,44.47
2019-01-19T18:35:43.409Z,44.27
2019-01-19T18:41:28.146Z,42.67
2019-01-19T18:47:21.855Z,46.60
2019-01-19T18:52:54.650Z,45.93
2019-01-19T18:59:02.725Z,44.83
2019-01-19T19:04:57.454Z,43.67
2019-01-19T19:11:03.307Z,47.03
2019-01-19T19:17:00.666Z,47.43
2019-01-19T19:23:06.985Z,57.77
2019-01-19T19:28:52.911Z,48.20
2019-01-19T19:34:35.740Z,48.77
2019-01-19T19:40:49.232Z,57.73
2019-01-19T19:46:49.706Z,45.77
2019-01-19T19:51:54.117Z,51.50
2019-01-19T19:56:57.838Z,41.50
2019-01-19T20:02:23.377Z,51.67
2019-01-19T20:07:26.420Z,54.27
2019-01-19T20:12:28.767Z,53.77
2019-01-19T20:17:31.047Z,53.63
2019-01-19T20:22:33.286Z,54.07
2019-01-19T20:27:36.575Z,51.87
2019-01-19T20:32:39.039Z,50.87
2019-01-19T20:37:41.364Z,51.33
2019-01-19T20:48:53.864Z,53.13
2019-01-19T20:54:11.674Z,49.37
2019-01-19T20:59:19.750Z,41.97
2019-01-19T21:04:29.366Z,51.77
2019-01-19T21:09:52.120Z,55.83
2019-01-19T21:15:13.203Z,53.90
2019-01-19T21:25:40.792Z,51.90
2019-01-19T21:30:53.183Z,55.67
2019-01-19T21:36:27.229Z,56.47
2019-01-19T21:41:34.535Z,47.13
2019-01-19T21:48:07.003Z,61.20
2019-01-19T21:53:46.777Z,46.97
2019-01-19T21:59:08.234Z,47.63
2019-01-19T22:04:56.757Z,55.20
2019-01-19T22:10:26.758Z,64.73
2019-01-19T22:16:06.371Z,69.17
2019-01-19T22:21:42.738Z,56.77
2019-01-19T22:26:51.507Z,68.27
2019-01-19T22:31:54.997Z,53.63
2019-01-19T22:36:57.727Z,54.23
2019-01-19T22:42:00.968Z,48.40
2019-01-19T22:47:04.279Z,51.00
2019-01-19T22:52:07.101Z,48.10
2019-01-19T22:57:09.353Z,45.90
2019-01-19T23:02:12.595Z,51.70
2019-01-19T23:07:15.244Z,45.47
2019-01-19T23:12:18.134Z,50.43
2019-01-19T23:17:20.957Z,48.40
2019-01-19T23:22:24.854Z,48.43
2019-01-19T23:27:27.238Z,46.53
2019-01-19T23:32:29.665Z,55.03
2019-01-19T23:37:31.916Z,48.03
2019-01-19T23:42:34.166Z,63.07
2019-01-19T23:47:37.196Z,48.07
2019-01-19T23:52:39.968Z,47.30
2019-01-19T23:57:42.523Z,47.03
